Main page
METAR-TAF:

METAR-TAF

Airports :

La Paz, Bolivia

El Alto International Airport

latitude: 16-31S, longitude: 068-11W, elevation: 4058 m

Current weather observation

The report was made 24 minutes ago, at 02:00 UTC
Wind 5 kt from the East
Temperature 3°C
Humidity 87%
Pressure 1038 hPa
Visibility 10 km or more
Few clouds at a height of 1300 ft

METAR: SLLP 220200Z 08005KT 9999 FEW013 03/01 Q1038

Time: 22:24 (02:24 UTC)

Forecast

The report was made 3 hours and 39 minutes ago, at 22:45 UTC
Forecast valid from 22 at 00 UTC to 22 at 24 UTC
Wind 5 kt from the East/Northeast
Visibility 10 km or more
Few clouds at a height of 1500 ft
Becoming
from 22 at 04 UTC to 22 at 08 UTC
Visibility: 3000 m
fog in vicinity
Temporary
from 22 at 17 UTC to 22 at 20 UTC
Wind 13 kt from the South/Southeast

TAF: SLLP 212245Z 2200/2224 07005KT 9999 FEW015 TX16/2220Z TN04/2210Z BECMG 2204/2208 3000E VCFG TEMPO 2217/2220 15013KT

Weather observations and forecasts of more than 4000 airports (METAR and TAF reports).

The available stations are represented by yellow and red dots on the map.

Hover mouse over dot to see the name of the station.

Then click to see weather observations and forecasts.

To change the map : click on the green buttons with a black cross to zoom in, on the green button with a dash to zoom out, or on the green arrows for adjacent maps.


METAR-TAF: